createdAt,value
2022-09-22T00:01:16.935Z,16.02
2022-09-22T00:04:09.286Z,18.75
2022-09-22T00:06:58.558Z,20.25
2022-09-22T00:09:40.966Z,19.50
2022-09-22T00:12:30.892Z,16.67
2022-09-22T00:15:13.393Z,23.38
2022-09-22T00:17:54.942Z,15.82
2022-09-22T00:20:40.433Z,16.88
2022-09-22T00:23:28.865Z,18.45
2022-09-22T00:26:23.671Z,21.27
2022-09-22T00:29:06.959Z,20.10
2022-09-22T00:31:55.942Z,16.70
2022-09-22T00:34:45.016Z,16.55
2022-09-22T00:37:27.257Z,19.00
2022-09-22T00:40:17.921Z,15.85
2022-09-22T00:43:26.946Z,22.27
2022-09-22T00:46:20.931Z,19.98
2022-09-22T00:49:13.236Z,22.25
2022-09-22T00:51:55.891Z,19.40
2022-09-22T00:54:39.522Z,19.13
2022-09-22T00:57:34.968Z,18.35
2022-09-22T01:00:24.329Z,22.13
2022-09-22T01:03:08.960Z,18.20
2022-09-22T01:05:54.215Z,21.13
2022-09-22T01:08:44.961Z,16.75
2022-09-22T01:11:29.023Z,19.40
2022-09-22T01:14:59.957Z,24.92
2022-09-22T01:17:54.277Z,20.38
2022-09-22T01:20:48.952Z,17.55
2022-09-22T01:23:57.957Z,22.58
2022-09-22T01:27:14.935Z,18.02
2022-09-22T01:30:12.013Z,19.85
2022-09-22T01:33:19.989Z,26.20
2022-09-22T01:36:10.920Z,18.27
2022-09-22T01:39:19.937Z,16.90
2022-09-22T01:42:14.835Z,18.95
2022-09-22T01:45:08.241Z,20.10
2022-09-22T01:48:04.937Z,23.85
2022-09-22T01:51:26.948Z,20.50
2022-09-22T01:54:42.334Z,18.83
2022-09-22T01:57:37.953Z,27.55
2022-09-22T02:00:20.854Z,23.65
2022-09-22T02:03:20.960Z,18.95
2022-09-22T02:06:12.201Z,22.90
2022-09-22T02:09:16.997Z,18.30
2022-09-22T02:12:07.337Z,25.50
2022-09-22T02:14:49.936Z,27.90
2022-09-22T02:17:35.380Z,24.67
2022-09-22T02:20:24.932Z,25.17
2022-09-22T02:23:13.965Z,26.55
2022-09-22T02:26:03.949Z,21.25
2022-09-22T02:28:53.232Z,27.95
2022-09-22T02:31:39.020Z,32.67
2022-09-22T02:34:27.228Z,21.70
2022-09-22T02:37:21.955Z,26.45
2022-09-22T02:40:47.097Z,23.35
2022-09-22T02:43:56.245Z,26.48
2022-09-22T02:46:56.945Z,27.00
2022-09-22T02:49:45.952Z,31.65
2022-09-22T02:52:37.938Z,28.45
2022-09-22T02:55:26.963Z,32.67
2022-09-22T02:58:09.202Z,30.60
2022-09-22T03:00:57.955Z,29.35
2022-09-22T03:03:40.244Z,30.75
2022-09-22T03:06:28.953Z,36.92
2022-09-22T03:09:11.281Z,36.97
2022-09-22T03:11:59.963Z,42.60
2022-09-22T03:14:42.423Z,43.70
2022-09-22T03:17:30.946Z,48.78
2022-09-22T03:20:14.195Z,41.38
2022-09-22T03:23:02.956Z,46.22
2022-09-22T03:25:45.236Z,44.67
2022-09-22T03:28:33.954Z,48.17
2022-09-22T03:31:16.229Z,50.63
2022-09-22T03:34:04.953Z,45.40
2022-09-22T03:36:53.930Z,49.38
2022-09-22T03:39:42.938Z,50.70
2022-09-22T03:42:31.948Z,48.17
2022-09-22T03:45:14.229Z,42.33
2022-09-22T03:48:02.951Z,42.17
2022-09-22T03:50:45.104Z,39.97
2022-09-22T03:53:33.979Z,46.85
2022-09-22T03:56:17.752Z,43.88
2022-09-22T03:59:06.938Z,48.70
2022-09-22T04:01:49.274Z,52.05
2022-09-22T04:04:37.933Z,62.55
2022-09-22T04:07:26.952Z,64.05
2022-09-22T04:10:15.843Z,63.10
2022-09-22T04:13:05.314Z,62.65
2022-09-22T04:15:46.864Z,72.35
2022-09-22T04:18:30.579Z,77.50
2022-09-22T04:21:20.862Z,87.78
2022-09-22T04:24:11.970Z,78.85
2022-09-22T04:27:18.682Z,91.15
2022-09-22T04:30:10.837Z,89.30
2022-09-22T04:32:59.894Z,84.63
2022-09-22T04:35:48.860Z,74.60
2022-09-22T04:38:37.291Z,86.75
2022-09-22T04:41:18.937Z,75.25
2022-09-22T04:44:07.247Z,84.35
2022-09-22T04:46:54.017Z,83.53
2022-09-22T04:49:43.223Z,76.03
2022-09-22T04:52:24.955Z,77.63
2022-09-22T04:55:14.392Z,76.72
2022-09-22T04:58:00.873Z,73.32
2022-09-22T05:00:49.962Z,65.50
2022-09-22T05:03:32.505Z,60.55
2022-09-22T05:06:20.966Z,51.80
2022-09-22T05:09:04.235Z,51.50
2022-09-22T05:11:52.949Z,47.17
2022-09-22T05:14:56.812Z,57.55
2022-09-22T05:17:45.992Z,54.83
2022-09-22T05:20:30.229Z,46.40
2022-09-22T05:23:18.986Z,41.00
2022-09-22T05:26:02.079Z,40.20
2022-09-22T05:28:50.980Z,35.97
2022-09-22T05:31:33.702Z,44.42
2022-09-22T05:34:22.831Z,41.20
2022-09-22T05:37:05.425Z,47.95
2022-09-22T05:39:53.950Z,38.60
2022-09-22T05:42:36.413Z,43.28
2022-09-22T05:45:26.010Z,38.42
2022-09-22T05:48:31.014Z,41.20
2022-09-22T05:51:19.949Z,42.20
2022-09-22T05:54:02.222Z,40.58
2022-09-22T05:56:50.861Z,35.15
2022-09-22T05:59:39.836Z,43.30
2022-09-22T06:02:26.091Z,42.55
2022-09-22T06:05:18.226Z,38.15
2022-09-22T06:08:07.401Z,49.45
2022-09-22T06:10:58.854Z,39.67
2022-09-22T06:13:41.127Z,37.30
2022-09-22T06:16:29.991Z,29.33
2022-09-22T06:19:18.841Z,29.08
2022-09-22T06:22:07.929Z,26.90
2022-09-22T06:24:50.156Z,29.63
2022-09-22T06:27:38.929Z,29.48
2022-09-22T06:30:27.228Z,31.35
2022-09-22T06:33:09.856Z,25.45
2022-09-22T06:35:52.192Z,28.08
2022-09-22T06:38:40.947Z,29.65
2022-09-22T06:41:29.841Z,26.83
2022-09-22T06:44:19.861Z,24.83
2022-09-22T06:47:12.535Z,25.27
2022-09-22T06:49:54.864Z,17.77
2022-09-22T06:52:40.649Z,21.52
2022-09-22T06:55:29.959Z,22.33
2022-09-22T06:58:12.810Z,27.27
2022-09-22T07:01:04.223Z,20.60
2022-09-22T07:03:54.969Z,17.50
2022-09-22T07:06:44.853Z,15.70
2022-09-22T07:09:33.873Z,12.73
2022-09-22T07:12:16.433Z,11.20
2022-09-22T07:15:05.871Z,15.77
2022-09-22T07:17:49.164Z,17.90
2022-09-22T07:20:37.921Z,15.75
2022-09-22T07:23:22.158Z,12.05
2022-09-22T07:26:14.924Z,11.65
2022-09-22T07:29:01.247Z,16.15
2022-09-22T07:31:51.077Z,16.65
2022-09-22T07:34:34.254Z,12.27
2022-09-22T07:37:23.851Z,19.17
2022-09-22T07:40:06.233Z,10.30
2022-09-22T07:42:57.957Z,12.43
2022-09-22T07:45:40.229Z,11.88
2022-09-22T07:48:46.890Z,9.77
2022-09-22T07:51:35.072Z,9.50
2022-09-22T07:54:23.864Z,10.07
2022-09-22T07:57:09.746Z,16.10
2022-09-22T07:59:58.847Z,15.50
2022-09-22T08:02:47.219Z,13.00
2022-09-22T08:05:37.926Z,12.15
2022-09-22T08:08:26.951Z,10.63
2022-09-22T08:11:22.852Z,17.15
2022-09-22T08:14:21.871Z,11.18
2022-09-22T08:17:13.355Z,11.60
2022-09-22T08:19:54.961Z,12.32
2022-09-22T08:22:37.381Z,13.93
2022-09-22T08:25:25.932Z,11.23
2022-09-22T08:28:20.811Z,17.05
2022-09-22T08:31:10.942Z,11.30
2022-09-22T08:33:56.398Z,11.70
2022-09-22T08:36:45.851Z,17.55
2022-09-22T08:39:28.380Z,16.63
2022-09-22T08:42:16.877Z,13.80
2022-09-22T08:45:29.251Z,14.07
2022-09-22T08:48:45.998Z,16.05
2022-09-22T08:51:56.161Z,20.17
2022-09-22T08:54:45.921Z,21.52
2022-09-22T08:57:43.210Z,13.90
2022-09-22T09:00:33.865Z,16.95
2022-09-22T09:03:50.035Z,15.40
2022-09-22T09:07:05.150Z,18.70
2022-09-22T09:10:22.848Z,17.08
2022-09-22T09:13:28.139Z,17.85
2022-09-22T09:16:37.789Z,13.63
2022-09-22T09:19:56.869Z,12.82
2022-09-22T09:22:54.857Z,12.15
2022-09-22T09:25:51.951Z,16.63
2022-09-22T09:28:47.248Z,12.65
2022-09-22T09:31:36.018Z,15.50
2022-09-22T09:34:27.851Z,14.50
2022-09-22T09:37:27.939Z,18.33
2022-09-22T09:40:24.924Z,14.63
2022-09-22T09:43:17.921Z,22.20
2022-09-22T09:46:26.974Z,14.95
2022-09-22T09:49:31.012Z,24.42
2022-09-22T09:55:03.990Z,16.27
2022-09-22T09:58:37.017Z,67.32
2022-09-22T10:01:22.931Z,17.38
2022-09-22T10:04:11.991Z,16.25
2022-09-22T10:06:55.246Z,19.63
2022-09-22T10:09:44.304Z,17.58
2022-09-22T10:12:32.343Z,13.95
2022-09-22T10:15:32.066Z,17.98
2022-09-22T10:18:32.208Z,17.92
2022-09-22T10:21:24.943Z,16.20
2022-09-22T10:24:14.995Z,19.40
2022-09-22T10:26:59.486Z,22.15
2022-09-22T10:29:49.848Z,16.75
2022-09-22T10:32:32.160Z,24.58
2022-09-22T10:35:43.925Z,18.25
2022-09-22T10:38:30.496Z,23.15
2022-09-22T10:41:20.929Z,19.63
2022-09-22T10:44:35.015Z,18.25
2022-09-22T10:47:50.014Z,18.27
2022-09-22T10:51:28.310Z,19.75
2022-09-22T10:54:37.926Z,19.17
2022-09-22T10:57:39.335Z,21.55
2022-09-22T11:00:35.253Z,19.35
2022-09-22T11:03:56.887Z,25.02
2022-09-22T11:07:35.537Z,22.45
2022-09-22T11:11:05.935Z,19.67
2022-09-22T11:14:03.192Z,21.55
2022-09-22T11:17:13.863Z,17.02
2022-09-22T11:20:11.930Z,12.73
2022-09-22T11:23:32.938Z,13.25
2022-09-22T11:26:54.008Z,16.00
2022-09-22T11:30:11.469Z,21.67
2022-09-22T11:33:10.932Z,10.50
2022-09-22T11:36:16.859Z,16.17
2022-09-22T11:39:28.372Z,11.60
2022-09-22T11:42:27.858Z,14.98
2022-09-22T11:45:36.193Z,14.52
2022-09-22T11:48:40.016Z,12.82
2022-09-22T11:54:37.950Z,9.38
2022-09-22T11:57:32.848Z,14.52
2022-09-22T12:00:27.832Z,14.18
2022-09-22T12:03:19.270Z,9.68
2022-09-22T12:06:20.844Z,10.55
2022-09-22T12:09:13.474Z,14.23
2022-09-22T12:11:55.850Z,10.77
2022-09-22T12:14:45.271Z,12.35
2022-09-22T12:17:34.930Z,14.57
2022-09-22T12:20:39.663Z,13.20
2022-09-22T12:23:32.938Z,10.05
2022-09-22T12:26:26.038Z,8.50
2022-09-22T12:29:16.928Z,14.23
2022-09-22T12:32:00.838Z,17.45
2022-09-22T12:34:53.866Z,10.48
2022-09-22T12:37:46.930Z,15.43
2022-09-22T12:40:42.599Z,14.13
2022-09-22T12:43:32.886Z,12.80
2022-09-22T12:46:34.366Z,15.00
2022-09-22T12:49:30.895Z,16.23
2022-09-22T12:52:45.240Z,10.93
2022-09-22T12:58:33.912Z,12.85
2022-09-22T13:01:33.899Z,11.40
2022-09-22T13:04:31.939Z,8.98
2022-09-22T13:07:49.894Z,14.32
2022-09-22T13:10:38.934Z,12.77
2022-09-22T13:13:44.714Z,11.95
2022-09-22T13:16:33.910Z,13.40
2022-09-22T13:19:24.415Z,16.95
2022-09-22T13:22:25.948Z,13.70
2022-09-22T13:25:37.253Z,14.40
2022-09-22T13:28:34.085Z,12.65
2022-09-22T13:31:26.216Z,15.32
2022-09-22T13:34:23.934Z,12.15
2022-09-22T13:37:20.227Z,21.27
2022-09-22T13:40:02.968Z,20.08
2022-09-22T13:42:53.453Z,22.00
2022-09-22T13:45:38.658Z,23.63
2022-09-22T13:48:28.908Z,22.73
2022-09-22T13:51:16.003Z,20.23
2022-09-22T13:54:06.002Z,22.27
2022-09-22T13:56:48.259Z,27.25
2022-09-22T13:59:50.995Z,19.77
2022-09-22T14:02:35.344Z,16.47
2022-09-22T14:05:29.916Z,15.35
2022-09-22T14:08:17.099Z,14.75
2022-09-22T14:11:09.872Z,17.02
2022-09-22T14:14:01.753Z,15.38
2022-09-22T14:16:57.023Z,14.88
2022-09-22T14:19:45.516Z,17.35
2022-09-22T14:22:36.993Z,18.63
2022-09-22T14:25:30.896Z,20.70
2022-09-22T14:28:29.840Z,15.30
2022-09-22T14:31:23.373Z,18.80
2022-09-22T14:34:05.961Z,19.00
2022-09-22T14:36:58.231Z,19.15
2022-09-22T14:39:42.937Z,15.05
2022-09-22T14:42:30.704Z,14.20
2022-09-22T14:45:26.038Z,17.33
2022-09-22T14:48:40.901Z,17.20
2022-09-22T14:51:38.257Z,18.10
2022-09-22T14:54:20.712Z,10.27
2022-09-22T14:57:13.954Z,15.32
2022-09-22T15:00:24.385Z,18.17
2022-09-22T15:03:06.891Z,11.07
2022-09-22T15:05:57.945Z,10.80
2022-09-22T15:08:40.137Z,11.90
2022-09-22T15:11:28.767Z,13.13
2022-09-22T15:14:58.800Z,14.90
2022-09-22T15:18:06.794Z,12.18
2022-09-22T15:21:06.647Z,10.52
2022-09-22T15:23:56.754Z,9.85
2022-09-22T15:26:46.717Z,9.85
2022-09-22T15:29:41.613Z,8.75
2022-09-22T15:32:30.781Z,14.93
2022-09-22T15:35:20.703Z,11.02
2022-09-22T15:38:09.721Z,11.00
2022-09-22T15:40:52.082Z,8.88
2022-09-22T15:43:40.927Z,10.45
2022-09-22T15:46:34.769Z,13.23
2022-09-22T15:49:29.892Z,10.40
2022-09-22T15:52:18.883Z,11.40
2022-09-22T15:55:01.656Z,12.45
2022-09-22T15:57:50.985Z,11.18
2022-09-22T16:00:33.292Z,14.48
2022-09-22T16:03:48.950Z,9.07
2022-09-22T16:06:34.021Z,14.10
2022-09-22T16:09:29.932Z,10.60
2022-09-22T16:12:23.549Z,18.98
2022-09-22T16:15:06.949Z,11.13
2022-09-22T16:17:49.293Z,21.08
2022-09-22T16:20:37.960Z,9.30
2022-09-22T16:23:29.012Z,8.65
2022-09-22T16:26:12.283Z,12.82
2022-09-22T16:29:01.025Z,10.17
2022-09-22T16:31:46.365Z,14.93
2022-09-22T16:34:35.041Z,14.63
2022-09-22T16:37:24.155Z,12.68
2022-09-22T16:40:14.380Z,8.35
2022-09-22T16:42:57.114Z,12.88
2022-09-22T16:46:04.031Z,10.90
2022-09-22T16:48:46.376Z,12.27
2022-09-22T16:51:35.894Z,7.53
2022-09-22T16:54:20.931Z,9.18
2022-09-22T16:57:11.374Z,8.40
2022-09-22T16:59:53.743Z,16.52
2022-09-22T17:02:43.994Z,8.05
2022-09-22T17:05:34.547Z,10.55
2022-09-22T17:08:19.413Z,9.63
2022-09-22T17:11:08.025Z,11.65
2022-09-22T17:13:52.047Z,12.95
2022-09-22T17:16:45.965Z,14.43
2022-09-22T17:19:35.930Z,9.07
2022-09-22T17:22:25.984Z,12.75
2022-09-22T17:25:15.986Z,18.63
2022-09-22T17:27:59.140Z,10.32
2022-09-22T17:30:54.922Z,10.07
2022-09-22T17:33:53.443Z,11.05
2022-09-22T17:36:37.304Z,16.65
2022-09-22T17:39:25.943Z,10.55
2022-09-22T17:42:08.413Z,15.38
2022-09-22T17:44:56.956Z,10.40
2022-09-22T17:47:57.866Z,12.77
2022-09-22T17:51:04.884Z,11.88
2022-09-22T17:54:11.952Z,12.95
2022-09-22T17:56:54.196Z,9.38
2022-09-22T17:59:43.951Z,10.55
2022-09-22T18:02:28.392Z,10.20
2022-09-22T18:05:27.144Z,15.18
2022-09-22T18:08:18.287Z,11.43
2022-09-22T18:11:00.841Z,13.02
2022-09-22T18:13:51.668Z,10.55
2022-09-22T18:16:40.916Z,9.75
2022-09-22T18:19:29.828Z,10.60
2022-09-22T18:22:15.332Z,15.20
2022-09-22T18:25:04.913Z,12.10
2022-09-22T18:27:49.299Z,12.35
2022-09-22T18:30:38.946Z,9.18
2022-09-22T18:33:27.830Z,15.18
2022-09-22T18:36:17.365Z,14.50
2022-09-22T18:39:00.204Z,12.95
2022-09-22T18:41:48.980Z,11.77
2022-09-22T18:44:33.491Z,12.57
2022-09-22T18:47:25.908Z,12.40
2022-09-22T18:50:14.818Z,15.75
2022-09-22T18:52:57.783Z,9.50
2022-09-22T18:55:46.889Z,11.07
2022-09-22T18:58:29.077Z,9.40
2022-09-22T19:01:17.890Z,12.95
2022-09-22T19:04:06.886Z,11.23
2022-09-22T19:07:13.914Z,10.30
2022-09-22T19:09:56.102Z,8.93
2022-09-22T19:12:44.902Z,15.57
2022-09-22T19:15:27.506Z,11.05
2022-09-22T19:18:17.924Z,11.75
2022-09-22T19:21:14.284Z,12.23
2022-09-22T19:23:57.257Z,10.27
2022-09-22T19:26:49.908Z,14.75
2022-09-22T19:29:32.335Z,9.90
2022-09-22T19:32:20.967Z,15.45
2022-09-22T19:35:03.213Z,9.23
2022-09-22T19:37:52.254Z,8.15
2022-09-22T19:40:35.160Z,13.93
2022-09-22T19:43:23.927Z,9.00
2022-09-22T19:46:06.419Z,10.43
2022-09-22T19:48:55.910Z,10.45
2022-09-22T19:51:38.429Z,17.25
2022-09-22T19:54:28.903Z,12.07
2022-09-22T19:57:11.321Z,14.35
2022-09-22T19:59:59.909Z,15.25
2022-09-22T20:05:44.819Z,14.07
2022-09-22T20:08:34.819Z,14.32
2022-09-22T20:11:26.584Z,21.85
2022-09-22T20:14:32.907Z,14.65
2022-09-22T20:17:21.208Z,14.73
2022-09-22T20:20:04.154Z,14.80
2022-09-22T20:22:54.827Z,12.05
2022-09-22T20:25:46.918Z,11.40
2022-09-22T20:28:28.762Z,15.00
2022-09-22T20:31:17.960Z,18.13
2022-09-22T20:34:00.217Z,14.18
2022-09-22T20:36:50.826Z,11.95
2022-09-22T20:39:40.217Z,12.05
2022-09-22T20:42:22.361Z,12.18
2022-09-22T20:45:10.916Z,12.40
2022-09-22T20:47:59.789Z,15.02
2022-09-22T20:50:48.814Z,11.73
2022-09-22T20:53:31.065Z,12.00
2022-09-22T20:56:19.908Z,15.50
2022-09-22T20:59:02.102Z,13.90
2022-09-22T21:01:50.956Z,15.82
2022-09-22T21:04:33.233Z,13.00
2022-09-22T21:07:21.811Z,12.60
2022-09-22T21:10:28.813Z,12.27
2022-09-22T21:13:10.770Z,12.95
2022-09-22T21:15:52.956Z,11.93
2022-09-22T21:18:35.679Z,10.15
2022-09-22T21:21:24.846Z,14.00
2022-09-22T21:24:08.216Z,14.30
2022-09-22T21:26:56.886Z,15.80
2022-09-22T21:29:52.771Z,14.25
2022-09-22T21:32:40.895Z,12.48
2022-09-22T21:35:23.110Z,16.30
2022-09-22T21:38:10.892Z,11.55
2022-09-22T21:40:53.167Z,11.35
2022-09-22T21:43:41.908Z,12.60
2022-09-22T21:46:32.122Z,11.20
2022-09-22T21:49:20.918Z,9.77
2022-09-22T21:52:03.224Z,10.63
2022-09-22T21:54:51.817Z,15.57
2022-09-22T21:57:40.899Z,10.18
2022-09-22T22:00:50.741Z,10.27
2022-09-22T22:03:37.940Z,10.10
2022-09-22T22:06:31.928Z,8.18
2022-09-22T22:09:26.819Z,10.23
2022-09-22T22:12:15.173Z,13.70
2022-09-22T22:14:56.813Z,9.75
2022-09-22T22:17:45.184Z,10.63
2022-09-22T22:20:27.979Z,7.90
2022-09-22T22:23:10.455Z,8.68
2022-09-22T22:26:00.890Z,9.65
2022-09-22T22:28:43.853Z,9.82
2022-09-22T22:31:36.887Z,12.63
2022-09-22T22:34:22.008Z,11.15
2022-09-22T22:37:16.890Z,9.52
2022-09-22T22:39:59.121Z,11.52
2022-09-22T22:42:47.893Z,11.23
2022-09-22T22:45:30.078Z,8.80
2022-09-22T22:48:18.813Z,8.70
2022-09-22T22:51:07.941Z,13.05
2022-09-22T22:53:50.182Z,8.68
2022-09-22T22:56:41.760Z,7.68
2022-09-22T22:59:31.817Z,8.93
2022-09-22T23:02:26.951Z,9.27
2022-09-22T23:05:09.627Z,8.95
2022-09-22T23:07:58.917Z,11.30
2022-09-22T23:10:41.100Z,9.93
2022-09-22T23:13:30.922Z,8.77
2022-09-22T23:16:15.103Z,10.05
2022-09-22T23:19:05.834Z,11.18
2022-09-22T23:21:54.957Z,7.18
2022-09-22T23:24:37.169Z,8.43
2022-09-22T23:27:25.903Z,10.73
2022-09-22T23:30:14.812Z,6.78
2022-09-22T23:33:04.793Z,13.68
2022-09-22T23:35:53.882Z,7.68
2022-09-22T23:38:37.167Z,8.20
2022-09-22T23:41:26.959Z,11.15
2022-09-22T23:44:15.201Z,7.60
2022-09-22T23:46:57.241Z,8.45
2022-09-22T23:49:45.215Z,8.95
2022-09-22T23:52:26.911Z,11.10
2022-09-22T23:55:16.175Z,9.00
2022-09-22T23:57:57.914Z,9.98
